sensor_id;sensor_type;location;lat;lon;timestamp;temperature;humidity
53534;DHT22;39421;53.204;6.568;2022-09-09T00:03:49;16.40;99.90
53534;DHT22;39421;53.204;6.568;2022-09-09T00:09:14;16.30;99.90
53534;DHT22;39421;53.204;6.568;2022-09-09T00:12:10;16.30;99.90
53534;DHT22;39421;53.204;6.568;2022-09-09T00:22:28;16.30;99.90
53534;DHT22;39421;53.204;6.568;2022-09-09T00:25:06;16.30;99.90
53534;DHT22;39421;53.204;6.568;2022-09-09T00:27:49;16.30;99.90
53534;DHT22;39421;53.204;6.568;2022-09-09T00:30:35;16.30;99.90
53534;DHT22;39421;53.204;6.568;2022-09-09T00:33:10;16.30;99.90
53534;DHT22;39421;53.204;6.568;2022-09-09T00:35:39;16.30;99.90
53534;DHT22;39421;53.204;6.568;2022-09-09T00:38:15;16.30;99.90
53534;DHT22;39421;53.204;6.568;2022-09-09T00:40:52;16.30;99.90
53534;DHT22;39421;53.204;6.568;2022-09-09T00:43:28;16.30;99.90
53534;DHT22;39421;53.204;6.568;2022-09-09T00:52:11;16.10;99.90
53534;DHT22;39421;53.204;6.568;2022-09-09T00:57:35;16.10;99.90
53534;DHT22;39421;53.204;6.568;2022-09-09T01:00:27;16.10;99.90
53534;DHT22;39421;53.204;6.568;2022-09-09T01:11:27;16.10;99.90
53534;DHT22;39421;53.204;6.568;2022-09-09T01:14:11;16.10;99.90
53534;DHT22;39421;53.204;6.568;2022-09-09T01:16:40;16.10;99.90
53534;DHT22;39421;53.204;6.568;2022-09-09T01:19:11;16.00;99.90
53534;DHT22;39421;53.204;6.568;2022-09-09T01:21:56;16.00;99.90
53534;DHT22;39421;53.204;6.568;2022-09-09T01:24:42;16.00;99.90
53534;DHT22;39421;53.204;6.568;2022-09-09T01:27:11;15.90;99.90
53534;DHT22;39421;53.204;6.568;2022-09-09T01:29:37;15.90;99.90
53534;DHT22;39421;53.204;6.568;2022-09-09T01:32:37;15.90;99.90
53534;DHT22;39421;53.204;6.568;2022-09-09T01:35:04;15.90;99.90
53534;DHT22;39421;53.204;6.568;2022-09-09T01:37:30;15.80;99.90
53534;DHT22;39421;53.204;6.568;2022-09-09T01:39:56;15.80;99.90
53534;DHT22;39421;53.204;6.568;2022-09-09T01:42:22;15.80;99.90
53534;DHT22;39421;53.204;6.568;2022-09-09T01:44:47;15.80;99.90
53534;DHT22;39421;53.204;6.568;2022-09-09T01:47:14;15.80;99.90
53534;DHT22;39421;53.204;6.568;2022-09-09T01:49:40;15.70;99.90
53534;DHT22;39421;53.204;6.568;2022-09-09T01:52:06;15.70;99.90
53534;DHT22;39421;53.204;6.568;2022-09-09T01:54:34;15.70;99.90
53534;DHT22;39421;53.204;6.568;2022-09-09T02:07:10;15.70;99.90
53534;DHT22;39421;53.204;6.568;2022-09-09T02:09:40;15.60;99.90
53534;DHT22;39421;53.204;6.568;2022-09-09T02:12:14;15.60;99.90
53534;DHT22;39421;53.204;6.568;2022-09-09T02:14:49;15.60;99.90
53534;DHT22;39421;53.204;6.568;2022-09-09T02:17:21;15.60;99.90
53534;DHT22;39421;53.204;6.568;2022-09-09T02:19:56;15.60;99.90
53534;DHT22;39421;53.204;6.568;2022-09-09T02:22:26;15.50;99.90
53534;DHT22;39421;53.204;6.568;2022-09-09T02:24:56;15.50;99.90
53534;DHT22;39421;53.204;6.568;2022-09-09T02:27:24;15.50;99.90
53534;DHT22;39421;53.204;6.568;2022-09-09T02:29:51;15.50;99.90
53534;DHT22;39421;53.204;6.568;2022-09-09T02:32:21;15.50;99.90
53534;DHT22;39421;53.204;6.568;2022-09-09T02:34:55;15.50;99.90
53534;DHT22;39421;53.204;6.568;2022-09-09T02:37:24;15.50;99.90
53534;DHT22;39421;53.204;6.568;2022-09-09T02:39:54;15.40;99.90
53534;DHT22;39421;53.204;6.568;2022-09-09T02:42:20;15.40;99.90
53534;DHT22;39421;53.204;6.568;2022-09-09T02:44:46;15.40;99.90
53534;DHT22;39421;53.204;6.568;2022-09-09T02:52:28;15.20;99.90
53534;DHT22;39421;53.204;6.568;2022-09-09T02:55:03;15.20;99.90
53534;DHT22;39421;53.204;6.568;2022-09-09T02:57:31;15.30;99.90
53534;DHT22;39421;53.204;6.568;2022-09-09T02:59:59;15.30;99.90
53534;DHT22;39421;53.204;6.568;2022-09-09T03:02:25;15.30;99.90
53534;DHT22;39421;53.204;6.568;2022-09-09T03:04:51;15.30;99.90
53534;DHT22;39421;53.204;6.568;2022-09-09T03:07:20;15.30;99.90
53534;DHT22;39421;53.204;6.568;2022-09-09T03:09:46;15.30;99.90
53534;DHT22;39421;53.204;6.568;2022-09-09T03:12:11;15.30;99.90
53534;DHT22;39421;53.204;6.568;2022-09-09T03:14:38;15.30;99.90
53534;DHT22;39421;53.204;6.568;2022-09-09T03:17:05;15.30;99.90
53534;DHT22;39421;53.204;6.568;2022-09-09T03:19:31;15.30;99.90
53534;DHT22;39421;53.204;6.568;2022-09-09T03:21:57;15.30;99.90
53534;DHT22;39421;53.204;6.568;2022-09-09T03:24:24;15.30;99.90
53534;DHT22;39421;53.204;6.568;2022-09-09T03:26:49;15.30;99.90
53534;DHT22;39421;53.204;6.568;2022-09-09T03:29:16;15.30;99.90
53534;DHT22;39421;53.204;6.568;2022-09-09T03:31:43;15.40;99.90
53534;DHT22;39421;53.204;6.568;2022-09-09T03:34:09;15.40;99.90
53534;DHT22;39421;53.204;6.568;2022-09-09T03:36:34;15.40;99.90
53534;DHT22;39421;53.204;6.568;2022-09-09T03:39:01;15.40;99.90
53534;DHT22;39421;53.204;6.568;2022-09-09T03:41:28;15.40;99.90
53534;DHT22;39421;53.204;6.568;2022-09-09T03:43:54;15.30;99.90
53534;DHT22;39421;53.204;6.568;2022-09-09T03:46:21;15.30;99.90
53534;DHT22;39421;53.204;6.568;2022-09-09T03:48:47;15.30;99.90
53534;DHT22;39421;53.204;6.568;2022-09-09T03:51:14;15.40;99.90
53534;DHT22;39421;53.204;6.568;2022-09-09T03:53:40;15.40;99.90
53534;DHT22;39421;53.204;6.568;2022-09-09T03:56:06;15.40;99.90
53534;DHT22;39421;53.204;6.568;2022-09-09T03:58:36;15.40;99.90
53534;DHT22;39421;53.204;6.568;2022-09-09T04:01:07;15.50;99.90
53534;DHT22;39421;53.204;6.568;2022-09-09T04:03:38;15.50;99.90
53534;DHT22;39421;53.204;6.568;2022-09-09T04:06:05;15.50;99.90
53534;DHT22;39421;53.204;6.568;2022-09-09T04:08:32;15.60;99.90
53534;DHT22;39421;53.204;6.568;2022-09-09T04:10:58;15.70;99.90
53534;DHT22;39421;53.204;6.568;2022-09-09T04:13:24;15.70;99.90
53534;DHT22;39421;53.204;6.568;2022-09-09T04:15:55;15.80;99.90
53534;DHT22;39421;53.204;6.568;2022-09-09T04:18:22;15.80;99.90
53534;DHT22;39421;53.204;6.568;2022-09-09T04:20:49;15.80;99.90
53534;DHT22;39421;53.204;6.568;2022-09-09T04:23:15;15.80;99.90
53534;DHT22;39421;53.204;6.568;2022-09-09T04:25:45;15.80;99.90
53534;DHT22;39421;53.204;6.568;2022-09-09T04:28:13;15.80;99.90
53534;DHT22;39421;53.204;6.568;2022-09-09T04:30:39;15.80;99.90
53534;DHT22;39421;53.204;6.568;2022-09-09T04:33:06;15.80;99.90
53534;DHT22;39421;53.204;6.568;2022-09-09T04:35:32;15.70;99.90
53534;DHT22;39421;53.204;6.568;2022-09-09T04:37:58;15.80;99.90
53534;DHT22;39421;53.204;6.568;2022-09-09T04:40:24;15.80;99.90
53534;DHT22;39421;53.204;6.568;2022-09-09T04:42:50;15.80;99.90
53534;DHT22;39421;53.204;6.568;2022-09-09T04:45:16;15.80;99.90
53534;DHT22;39421;53.204;6.568;2022-09-09T04:47:42;15.80;99.90
53534;DHT22;39421;53.204;6.568;2022-09-09T04:50:08;15.80;99.90
53534;DHT22;39421;53.204;6.568;2022-09-09T04:52:37;15.80;99.90
53534;DHT22;39421;53.204;6.568;2022-09-09T04:55:03;15.80;99.90
53534;DHT22;39421;53.204;6.568;2022-09-09T04:57:29;15.90;99.90
53534;DHT22;39421;53.204;6.568;2022-09-09T04:59:57;15.80;99.90
53534;DHT22;39421;53.204;6.568;2022-09-09T05:02:23;15.90;99.90
53534;DHT22;39421;53.204;6.568;2022-09-09T05:04:49;15.90;99.90
53534;DHT22;39421;53.204;6.568;2022-09-09T05:07:15;15.90;99.90
53534;DHT22;39421;53.204;6.568;2022-09-09T05:09:41;15.80;99.90
53534;DHT22;39421;53.204;6.568;2022-09-09T05:12:06;15.80;99.90
53534;DHT22;39421;53.204;6.568;2022-09-09T05:14:33;15.80;99.90
53534;DHT22;39421;53.204;6.568;2022-09-09T05:17:01;15.80;99.90
53534;DHT22;39421;53.204;6.568;2022-09-09T05:19:26;15.80;99.90
53534;DHT22;39421;53.204;6.568;2022-09-09T05:21:52;15.90;99.90
53534;DHT22;39421;53.204;6.568;2022-09-09T05:24:18;15.90;99.90
53534;DHT22;39421;53.204;6.568;2022-09-09T05:26:43;15.90;99.90
53534;DHT22;39421;53.204;6.568;2022-09-09T05:29:09;15.90;99.90
53534;DHT22;39421;53.204;6.568;2022-09-09T05:31:35;15.90;99.90
53534;DHT22;39421;53.204;6.568;2022-09-09T05:34:00;15.80;99.90
53534;DHT22;39421;53.204;6.568;2022-09-09T05:36:26;15.80;99.90
53534;DHT22;39421;53.204;6.568;2022-09-09T05:38:52;15.90;99.90
53534;DHT22;39421;53.204;6.568;2022-09-09T05:41:21;15.80;99.90
53534;DHT22;39421;53.204;6.568;2022-09-09T05:43:48;15.80;99.90
53534;DHT22;39421;53.204;6.568;2022-09-09T05:46:16;15.80;99.90
53534;DHT22;39421;53.204;6.568;2022-09-09T05:48:44;15.80;99.90
53534;DHT22;39421;53.204;6.568;2022-09-09T05:51:13;15.80;99.90
53534;DHT22;39421;53.204;6.568;2022-09-09T05:53:43;15.70;99.90
53534;DHT22;39421;53.204;6.568;2022-09-09T05:56:18;15.80;99.90
53534;DHT22;39421;53.204;6.568;2022-09-09T05:58:44;15.80;99.90
53534;DHT22;39421;53.204;6.568;2022-09-09T06:01:12;15.80;99.90
53534;DHT22;39421;53.204;6.568;2022-09-09T06:03:40;15.90;99.90
53534;DHT22;39421;53.204;6.568;2022-09-09T06:06:09;15.90;99.90
53534;DHT22;39421;53.204;6.568;2022-09-09T06:08:37;15.90;99.90
53534;DHT22;39421;53.204;6.568;2022-09-09T06:11:09;15.90;99.90
53534;DHT22;39421;53.204;6.568;2022-09-09T06:13:35;15.80;99.90
53534;DHT22;39421;53.204;6.568;2022-09-09T06:16:03;15.80;99.90
53534;DHT22;39421;53.204;6.568;2022-09-09T06:18:29;15.90;99.90
53534;DHT22;39421;53.204;6.568;2022-09-09T06:21:00;15.90;99.90
53534;DHT22;39421;53.204;6.568;2022-09-09T06:23:27;15.90;99.90
53534;DHT22;39421;53.204;6.568;2022-09-09T06:26:14;15.90;99.90
53534;DHT22;39421;53.204;6.568;2022-09-09T06:28:41;15.90;99.90
53534;DHT22;39421;53.204;6.568;2022-09-09T06:31:10;15.90;99.90
53534;DHT22;39421;53.204;6.568;2022-09-09T06:33:41;15.80;99.90
53534;DHT22;39421;53.204;6.568;2022-09-09T06:36:12;15.80;99.90
53534;DHT22;39421;53.204;6.568;2022-09-09T06:38:38;15.90;99.90
53534;DHT22;39421;53.204;6.568;2022-09-09T06:41:04;15.90;99.90
53534;DHT22;39421;53.204;6.568;2022-09-09T06:43:31;15.90;99.90
53534;DHT22;39421;53.204;6.568;2022-09-09T06:46:02;15.90;99.90
53534;DHT22;39421;53.204;6.568;2022-09-09T06:48:29;16.00;99.90
53534;DHT22;39421;53.204;6.568;2022-09-09T06:53:33;16.10;99.90
53534;DHT22;39421;53.204;6.568;2022-09-09T06:56:17;16.10;99.90
53534;DHT22;39421;53.204;6.568;2022-09-09T06:58:44;16.10;99.90
53534;DHT22;39421;53.204;6.568;2022-09-09T07:01:13;16.20;99.90
53534;DHT22;39421;53.204;6.568;2022-09-09T07:03:39;16.20;99.90
53534;DHT22;39421;53.204;6.568;2022-09-09T07:06:06;16.20;99.90
53534;DHT22;39421;53.204;6.568;2022-09-09T07:08:33;16.20;99.90
53534;DHT22;39421;53.204;6.568;2022-09-09T07:11:07;16.20;99.90
53534;DHT22;39421;53.204;6.568;2022-09-09T07:13:33;16.10;99.90
53534;DHT22;39421;53.204;6.568;2022-09-09T07:16:10;16.20;99.90
53534;DHT22;39421;53.204;6.568;2022-09-09T07:18:36;16.20;99.90
53534;DHT22;39421;53.204;6.568;2022-09-09T07:21:03;16.20;99.90
53534;DHT22;39421;53.204;6.568;2022-09-09T07:23:30;16.20;99.90
53534;DHT22;39421;53.204;6.568;2022-09-09T07:25:56;16.20;99.90
53534;DHT22;39421;53.204;6.568;2022-09-09T07:28:24;16.20;99.90
53534;DHT22;39421;53.204;6.568;2022-09-09T07:30:54;16.20;99.90
53534;DHT22;39421;53.204;6.568;2022-09-09T07:33:20;16.20;99.90
53534;DHT22;39421;53.204;6.568;2022-09-09T07:35:46;16.30;99.90
53534;DHT22;39421;53.204;6.568;2022-09-09T07:38:11;16.40;99.90
53534;DHT22;39421;53.204;6.568;2022-09-09T07:40:37;16.40;99.90
53534;DHT22;39421;53.204;6.568;2022-09-09T07:43:03;16.40;99.90
53534;DHT22;39421;53.204;6.568;2022-09-09T07:45:29;16.40;99.90
53534;DHT22;39421;53.204;6.568;2022-09-09T07:47:58;16.40;99.90
53534;DHT22;39421;53.204;6.568;2022-09-09T07:50:23;16.60;99.90
53534;DHT22;39421;53.204;6.568;2022-09-09T07:52:51;16.60;99.90
53534;DHT22;39421;53.204;6.568;2022-09-09T07:55:20;16.60;99.90
53534;DHT22;39421;53.204;6.568;2022-09-09T07:57:46;16.70;99.90
53534;DHT22;39421;53.204;6.568;2022-09-09T08:00:12;16.80;99.90
53534;DHT22;39421;53.204;6.568;2022-09-09T08:02:40;16.80;99.90
53534;DHT22;39421;53.204;6.568;2022-09-09T08:05:06;16.90;99.90
53534;DHT22;39421;53.204;6.568;2022-09-09T08:07:32;16.90;99.90
53534;DHT22;39421;53.204;6.568;2022-09-09T08:09:58;17.00;99.90
53534;DHT22;39421;53.204;6.568;2022-09-09T08:12:24;17.00;99.90
53534;DHT22;39421;53.204;6.568;2022-09-09T08:14:50;17.00;99.90
53534;DHT22;39421;53.204;6.568;2022-09-09T08:17:16;17.10;99.90
53534;DHT22;39421;53.204;6.568;2022-09-09T08:19:42;17.20;99.90
53534;DHT22;39421;53.204;6.568;2022-09-09T08:22:10;17.30;99.90
53534;DHT22;39421;53.204;6.568;2022-09-09T08:24:35;17.40;99.90
53534;DHT22;39421;53.204;6.568;2022-09-09T08:27:01;17.40;99.90
53534;DHT22;39421;53.204;6.568;2022-09-09T08:29:27;17.50;99.90
53534;DHT22;39421;53.204;6.568;2022-09-09T08:31:58;17.60;99.90
53534;DHT22;39421;53.204;6.568;2022-09-09T08:34:25;17.70;99.90
53534;DHT22;39421;53.204;6.568;2022-09-09T08:36:52;18.00;99.90
53534;DHT22;39421;53.204;6.568;2022-09-09T08:39:20;18.20;99.90
53534;DHT22;39421;53.204;6.568;2022-09-09T08:44:23;18.40;99.90
53534;DHT22;39421;53.204;6.568;2022-09-09T08:55:32;18.50;99.90
53534;DHT22;39421;53.204;6.568;2022-09-09T08:58:16;18.50;99.90
53534;DHT22;39421;53.204;6.568;2022-09-09T09:11:21;18.20;99.90
53534;DHT22;39421;53.204;6.568;2022-09-09T09:16:34;18.30;99.90
53534;DHT22;39421;53.204;6.568;2022-09-09T09:19:02;18.30;99.90
53534;DHT22;39421;53.204;6.568;2022-09-09T09:21:45;18.40;99.90
53534;DHT22;39421;53.204;6.568;2022-09-09T09:24:22;18.60;99.90
53534;DHT22;39421;53.204;6.568;2022-09-09T09:26:49;18.60;99.90
53534;DHT22;39421;53.204;6.568;2022-09-09T09:29:17;18.60;99.90
53534;DHT22;39421;53.204;6.568;2022-09-09T09:31:52;18.70;99.90
53534;DHT22;39421;53.204;6.568;2022-09-09T09:34:20;18.70;99.90
53534;DHT22;39421;53.204;6.568;2022-09-09T09:37:13;18.90;99.90
53534;DHT22;39421;53.204;6.568;2022-09-09T09:39:42;19.20;99.90
53534;DHT22;39421;53.204;6.568;2022-09-09T09:42:12;19.40;99.90
53534;DHT22;39421;53.204;6.568;2022-09-09T09:44:40;19.40;99.90
53534;DHT22;39421;53.204;6.568;2022-09-09T09:47:18;19.30;99.90
53534;DHT22;39421;53.204;6.568;2022-09-09T09:50:03;19.10;99.90
53534;DHT22;39421;53.204;6.568;2022-09-09T09:52:33;19.10;99.90
53534;DHT22;39421;53.204;6.568;2022-09-09T09:55:12;19.20;99.90
53534;DHT22;39421;53.204;6.568;2022-09-09T09:57:45;19.60;99.90
53534;DHT22;39421;53.204;6.568;2022-09-09T10:00:22;20.10;99.90
53534;DHT22;39421;53.204;6.568;2022-09-09T10:02:51;20.20;99.90
53534;DHT22;39421;53.204;6.568;2022-09-09T10:05:29;20.00;99.90
53534;DHT22;39421;53.204;6.568;2022-09-09T10:08:14;19.70;99.90
53534;DHT22;39421;53.204;6.568;2022-09-09T10:13:56;19.40;99.90
53534;DHT22;39421;53.204;6.568;2022-09-09T10:16:40;19.40;99.90
53534;DHT22;39421;53.204;6.568;2022-09-09T10:19:16;19.40;99.90
53534;DHT22;39421;53.204;6.568;2022-09-09T10:26:59;19.20;99.90
53534;DHT22;39421;53.204;6.568;2022-09-09T10:29:59;19.10;99.90
53534;DHT22;39421;53.204;6.568;2022-09-09T10:32:49;19.10;99.90
53534;DHT22;39421;53.204;6.568;2022-09-09T10:35:35;19.10;99.90
53534;DHT22;39421;53.204;6.568;2022-09-09T10:38:14;19.00;99.90
53534;DHT22;39421;53.204;6.568;2022-09-09T10:41:00;19.00;99.90
53534;DHT22;39421;53.204;6.568;2022-09-09T10:54:24;19.20;99.90
53534;DHT22;39421;53.204;6.568;2022-09-09T10:57:13;19.20;99.90
53534;DHT22;39421;53.204;6.568;2022-09-09T10:59:49;19.30;99.90
53534;DHT22;39421;53.204;6.568;2022-09-09T11:02:27;19.60;99.90
53534;DHT22;39421;53.204;6.568;2022-09-09T11:07:34;20.00;99.90
53534;DHT22;39421;53.204;6.568;2022-09-09T11:13:34;20.00;99.90
53534;DHT22;39421;53.204;6.568;2022-09-09T11:18:47;20.00;99.90
53534;DHT22;39421;53.204;6.568;2022-09-09T11:21:23;20.00;99.90
53534;DHT22;39421;53.204;6.568;2022-09-09T11:24:11;20.10;99.90
53534;DHT22;39421;53.204;6.568;2022-09-09T11:27:01;20.40;99.90
53534;DHT22;39421;53.204;6.568;2022-09-09T11:35:25;20.80;99.90
53534;DHT22;39421;53.204;6.568;2022-09-09T11:40:59;20.90;99.90
53534;DHT22;39421;53.204;6.568;2022-09-09T11:43:39;21.00;99.90
53534;DHT22;39421;53.204;6.568;2022-09-09T11:46:06;21.00;99.90
53534;DHT22;39421;53.204;6.568;2022-09-09T11:48:41;21.00;99.90
53534;DHT22;39421;53.204;6.568;2022-09-09T11:51:30;21.00;99.90
53534;DHT22;39421;53.204;6.568;2022-09-09T11:54:28;20.80;99.90
53534;DHT22;39421;53.204;6.568;2022-09-09T11:56:52;20.70;99.90
53534;DHT22;39421;53.204;6.568;2022-09-09T11:59:29;20.60;99.90
53534;DHT22;39421;53.204;6.568;2022-09-09T12:06:59;20.60;99.90
53534;DHT22;39421;53.204;6.568;2022-09-09T12:09:39;20.50;99.90
53534;DHT22;39421;53.204;6.568;2022-09-09T12:12:29;20.50;99.90
53534;DHT22;39421;53.204;6.568;2022-09-09T12:17:50;20.70;99.90
53534;DHT22;39421;53.204;6.568;2022-09-09T12:20:33;20.70;99.90
53534;DHT22;39421;53.204;6.568;2022-09-09T12:26:03;20.60;99.90
53534;DHT22;39421;53.204;6.568;2022-09-09T12:28:47;20.60;99.90
53534;DHT22;39421;53.204;6.568;2022-09-09T12:31:38;20.60;99.90
53534;DHT22;39421;53.204;6.568;2022-09-09T12:34:35;20.50;99.90
53534;DHT22;39421;53.204;6.568;2022-09-09T12:37:17;20.50;99.90
53534;DHT22;39421;53.204;6.568;2022-09-09T12:42:53;20.40;99.90
53534;DHT22;39421;53.204;6.568;2022-09-09T12:45:37;20.40;99.90
53534;DHT22;39421;53.204;6.568;2022-09-09T12:48:08;20.60;99.90
53534;DHT22;39421;53.204;6.568;2022-09-09T12:50:43;20.60;99.90
53534;DHT22;39421;53.204;6.568;2022-09-09T12:53:25;20.60;99.90
53534;DHT22;39421;53.204;6.568;2022-09-09T12:58:32;20.60;99.90
53534;DHT22;39421;53.204;6.568;2022-09-09T13:01:01;20.60;99.90
53534;DHT22;39421;53.204;6.568;2022-09-09T13:03:41;20.70;99.90
53534;DHT22;39421;53.204;6.568;2022-09-09T13:06:28;20.70;99.90
53534;DHT22;39421;53.204;6.568;2022-09-09T13:09:00;20.90;99.90
53534;DHT22;39421;53.204;6.568;2022-09-09T13:14:04;21.00;99.90
53534;DHT22;39421;53.204;6.568;2022-09-09T13:16:38;21.10;99.90
53534;DHT22;39421;53.204;6.568;2022-09-09T13:19:15;21.10;99.90
53534;DHT22;39421;53.204;6.568;2022-09-09T13:21:41;21.00;99.90
53534;DHT22;39421;53.204;6.568;2022-09-09T13:26:56;20.80;99.90
53534;DHT22;39421;53.204;6.568;2022-09-09T13:29:22;20.80;99.90
53534;DHT22;39421;53.204;6.568;2022-09-09T13:31:49;20.80;99.90
53534;DHT22;39421;53.204;6.568;2022-09-09T13:34:32;20.80;99.90
53534;DHT22;39421;53.204;6.568;2022-09-09T13:37:03;20.70;99.90
53534;DHT22;39421;53.204;6.568;2022-09-09T13:39:33;20.70;99.90
53534;DHT22;39421;53.204;6.568;2022-09-09T13:42:00;20.70;99.90
53534;DHT22;39421;53.204;6.568;2022-09-09T13:44:39;20.70;99.90
53534;DHT22;39421;53.204;6.568;2022-09-09T13:49:34;20.80;99.90
53534;DHT22;39421;53.204;6.568;2022-09-09T13:52:12;20.70;99.90
53534;DHT22;39421;53.204;6.568;2022-09-09T13:54:40;20.70;99.90
53534;DHT22;39421;53.204;6.568;2022-09-09T13:57:14;20.70;99.90
53534;DHT22;39421;53.204;6.568;2022-09-09T13:59:40;20.70;99.90
53534;DHT22;39421;53.204;6.568;2022-09-09T14:02:09;20.80;99.90
53534;DHT22;39421;53.204;6.568;2022-09-09T14:04:38;20.80;99.90
53534;DHT22;39421;53.204;6.568;2022-09-09T14:07:11;20.90;99.90
53534;DHT22;39421;53.204;6.568;2022-09-09T14:09:38;21.00;99.90
53534;DHT22;39421;53.204;6.568;2022-09-09T14:12:04;20.90;99.90
53534;DHT22;39421;53.204;6.568;2022-09-09T14:14:33;20.90;99.90
53534;DHT22;39421;53.204;6.568;2022-09-09T14:17:02;20.90;99.90
53534;DHT22;39421;53.204;6.568;2022-09-09T14:19:29;20.80;99.90
53534;DHT22;39421;53.204;6.568;2022-09-09T14:21:59;20.80;99.90
53534;DHT22;39421;53.204;6.568;2022-09-09T14:24:28;20.80;99.90
53534;DHT22;39421;53.204;6.568;2022-09-09T14:26:54;20.90;99.90
53534;DHT22;39421;53.204;6.568;2022-09-09T14:29:20;21.10;99.90
53534;DHT22;39421;53.204;6.568;2022-09-09T14:31:46;21.10;99.90
53534;DHT22;39421;53.204;6.568;2022-09-09T14:34:12;21.10;99.90
53534;DHT22;39421;53.204;6.568;2022-09-09T14:36:40;21.00;99.90
53534;DHT22;39421;53.204;6.568;2022-09-09T14:39:09;20.90;99.90
53534;DHT22;39421;53.204;6.568;2022-09-09T14:41:35;20.90;99.90
53534;DHT22;39421;53.204;6.568;2022-09-09T14:44:01;20.80;99.90
53534;DHT22;39421;53.204;6.568;2022-09-09T14:46:27;20.50;99.90
53534;DHT22;39421;53.204;6.568;2022-09-09T14:48:52;20.10;99.90
53534;DHT22;39421;53.204;6.568;2022-09-09T14:51:21;19.90;99.90
53534;DHT22;39421;53.204;6.568;2022-09-09T14:53:52;19.70;99.90
53534;DHT22;39421;53.204;6.568;2022-09-09T14:56:20;19.60;99.90
53534;DHT22;39421;53.204;6.568;2022-09-09T14:58:47;19.50;99.90
53534;DHT22;39421;53.204;6.568;2022-09-09T15:01:15;19.50;99.90
53534;DHT22;39421;53.204;6.568;2022-09-09T15:03:42;19.60;99.90
53534;DHT22;39421;53.204;6.568;2022-09-09T15:06:11;19.70;99.90
53534;DHT22;39421;53.204;6.568;2022-09-09T15:08:39;19.70;99.90
53534;DHT22;39421;53.204;6.568;2022-09-09T15:11:06;19.70;99.90
53534;DHT22;39421;53.204;6.568;2022-09-09T15:13:36;19.80;99.90
53534;DHT22;39421;53.204;6.568;2022-09-09T15:16:11;19.90;99.90
53534;DHT22;39421;53.204;6.568;2022-09-09T15:18:37;20.00;99.90
53534;DHT22;39421;53.204;6.568;2022-09-09T15:21:05;20.10;99.90
53534;DHT22;39421;53.204;6.568;2022-09-09T15:23:32;20.20;99.90
53534;DHT22;39421;53.204;6.568;2022-09-09T15:26:19;20.40;99.90
53534;DHT22;39421;53.204;6.568;2022-09-09T15:28:51;20.30;99.90
53534;DHT22;39421;53.204;6.568;2022-09-09T15:31:22;20.20;99.90
53534;DHT22;39421;53.204;6.568;2022-09-09T15:33:59;20.20;99.90
53534;DHT22;39421;53.204;6.568;2022-09-09T15:36:35;20.20;99.90
53534;DHT22;39421;53.204;6.568;2022-09-09T15:39:07;20.30;99.90
53534;DHT22;39421;53.204;6.568;2022-09-09T15:41:41;20.30;99.90
53534;DHT22;39421;53.204;6.568;2022-09-09T15:44:08;20.40;99.90
53534;DHT22;39421;53.204;6.568;2022-09-09T15:46:42;20.30;99.90
53534;DHT22;39421;53.204;6.568;2022-09-09T15:49:17;20.30;99.90
53534;DHT22;39421;53.204;6.568;2022-09-09T15:51:55;20.20;99.90
53534;DHT22;39421;53.204;6.568;2022-09-09T15:54:22;20.20;99.90
53534;DHT22;39421;53.204;6.568;2022-09-09T15:56:57;20.10;99.90
53534;DHT22;39421;53.204;6.568;2022-09-09T15:59:24;20.10;99.90
53534;DHT22;39421;53.204;6.568;2022-09-09T16:01:53;20.10;99.90
53534;DHT22;39421;53.204;6.568;2022-09-09T16:04:23;20.00;99.90
53534;DHT22;39421;53.204;6.568;2022-09-09T16:06:54;20.00;99.90
53534;DHT22;39421;53.204;6.568;2022-09-09T16:09:23;20.00;99.90
53534;DHT22;39421;53.204;6.568;2022-09-09T16:11:48;20.00;99.90
53534;DHT22;39421;53.204;6.568;2022-09-09T16:14:15;19.90;99.90
53534;DHT22;39421;53.204;6.568;2022-09-09T16:16:42;19.90;99.90
53534;DHT22;39421;53.204;6.568;2022-09-09T16:19:11;19.90;99.90
53534;DHT22;39421;53.204;6.568;2022-09-09T16:21:43;19.90;99.90
53534;DHT22;39421;53.204;6.568;2022-09-09T16:24:12;19.90;99.90
53534;DHT22;39421;53.204;6.568;2022-09-09T16:26:41;19.90;99.90
53534;DHT22;39421;53.204;6.568;2022-09-09T16:29:10;19.90;99.90
53534;DHT22;39421;53.204;6.568;2022-09-09T16:31:37;19.90;99.90
53534;DHT22;39421;53.204;6.568;2022-09-09T16:34:09;20.00;99.90
53534;DHT22;39421;53.204;6.568;2022-09-09T16:36:42;19.90;99.90
53534;DHT22;39421;53.204;6.568;2022-09-09T16:39:16;19.90;99.90
53534;DHT22;39421;53.204;6.568;2022-09-09T16:41:47;19.90;99.90
53534;DHT22;39421;53.204;6.568;2022-09-09T16:44:20;19.90;99.90
53534;DHT22;39421;53.204;6.568;2022-09-09T16:46:48;19.80;99.90
53534;DHT22;39421;53.204;6.568;2022-09-09T16:49:20;19.80;99.90
53534;DHT22;39421;53.204;6.568;2022-09-09T16:51:59;19.70;99.90
53534;DHT22;39421;53.204;6.568;2022-09-09T16:54:25;19.60;99.90
53534;DHT22;39421;53.204;6.568;2022-09-09T16:56:52;19.60;99.90
53534;DHT22;39421;53.204;6.568;2022-09-09T16:59:24;19.50;99.90
53534;DHT22;39421;53.204;6.568;2022-09-09T17:02:18;19.50;99.90
53534;DHT22;39421;53.204;6.568;2022-09-09T17:04:44;19.50;99.90
53534;DHT22;39421;53.204;6.568;2022-09-09T17:07:20;19.40;99.90
53534;DHT22;39421;53.204;6.568;2022-09-09T17:10:02;19.40;99.90
53534;DHT22;39421;53.204;6.568;2022-09-09T17:12:42;19.30;99.90
53534;DHT22;39421;53.204;6.568;2022-09-09T17:15:08;19.20;99.90
53534;DHT22;39421;53.204;6.568;2022-09-09T17:17:42;19.20;99.90
53534;DHT22;39421;53.204;6.568;2022-09-09T17:20:39;19.10;99.90
53534;DHT22;39421;53.204;6.568;2022-09-09T17:23:13;19.10;99.90
53534;DHT22;39421;53.204;6.568;2022-09-09T17:25:41;19.00;99.90
53534;DHT22;39421;53.204;6.568;2022-09-09T17:28:12;18.90;99.90
53534;DHT22;39421;53.204;6.568;2022-09-09T17:30:47;18.90;99.90
53534;DHT22;39421;53.204;6.568;2022-09-09T17:33:14;18.90;99.90
53534;DHT22;39421;53.204;6.568;2022-09-09T17:35:51;19.00;99.90
53534;DHT22;39421;53.204;6.568;2022-09-09T17:38:20;19.00;99.90
53534;DHT22;39421;53.204;6.568;2022-09-09T17:41:00;19.00;99.90
53534;DHT22;39421;53.204;6.568;2022-09-09T17:43:29;19.00;99.90
53534;DHT22;39421;53.204;6.568;2022-09-09T17:46:23;18.90;99.90
53534;DHT22;39421;53.204;6.568;2022-09-09T17:48:52;19.00;99.90
53534;DHT22;39421;53.204;6.568;2022-09-09T17:51:21;18.90;99.90
53534;DHT22;39421;53.204;6.568;2022-09-09T17:53:52;18.90;99.90
53534;DHT22;39421;53.204;6.568;2022-09-09T17:56:21;18.90;99.90
53534;DHT22;39421;53.204;6.568;2022-09-09T17:59:04;18.90;99.90
53534;DHT22;39421;53.204;6.568;2022-09-09T18:01:36;19.00;99.90
53534;DHT22;39421;53.204;6.568;2022-09-09T18:04:06;19.00;99.90
53534;DHT22;39421;53.204;6.568;2022-09-09T18:06:34;19.00;99.90
53534;DHT22;39421;53.204;6.568;2022-09-09T18:09:05;19.10;99.90